ACA420 KIAH-CYUL
Flight info
| Callsign | ACA420 |
|---|---|
| Flight time | N/A |
| Altitude | 41000 |
| Route | LURIC8 HAWES DCT SUTTN J29 MEM DCT IIU DCT JHW DCT ART IMPAC4 |
| Aircraft | A359/H-SDE2E3GHIJ3J4J5LM1ORWXY/LB1D1 |
Departure
| Time | 2025-09-06 23:30 |
|---|---|
| Airport | George Bush Intercontinental Airport (KIAH) |
Arrival
| Time | N/A |
|---|---|
| Airport | Montreal / Pierre Elliott Trudeau International Airport (CYUL) |
| Time | Latitude | Longitude | Altitude | Speed | Heading |
|---|---|---|---|---|---|
| 2025-09-06 23:05 | 29.98416 | -95.33911 | 107 ft | 0 kts | 66° |
| 2025-09-06 23:19 | 29.98394 | -95.33945 | 95 ft | 3 kts | 14° |
| 2025-09-06 23:20 | 29.98358 | -95.33938 | 105 ft | 3 kts | 330° |
| 2025-09-06 23:20 | 29.98342 | -95.33927 | 104 ft | 3 kts | 312° |
| 2025-09-06 23:21 | 29.98332 | -95.33904 | 104 ft | 0 kts | 270° |
| 2025-09-06 23:23 | 29.98330 | -95.33970 | 107 ft | 10 kts | 264° |
| 2025-09-06 23:24 | 29.98307 | -95.34171 | 107 ft | 15 kts | 270° |
| 2025-09-06 23:24 | 29.98314 | -95.34447 | 107 ft | 19 kts | 276° |
| 2025-09-06 23:25 | 29.98327 | -95.34786 | 108 ft | 23 kts | 269° |
| 2025-09-06 23:25 | 29.98370 | -95.35165 | 108 ft | 26 kts | 307° |
| 2025-09-06 23:25 | 29.98518 | -95.35286 | 109 ft | 27 kts | 332° |
| 2025-09-06 23:26 | 29.98838 | -95.35480 | 110 ft | 22 kts | 332° |
| 2025-09-06 23:26 | 29.98848 | -95.35666 | 110 ft | 0 kts | 237° |
| 2025-09-06 23:28 | 29.98846 | -95.35671 | 110 ft | 4 kts | 237° |
| 2025-09-06 23:28 | 29.98710 | -95.35733 | 112 ft | 23 kts | 155° |
| 2025-09-06 23:29 | 29.97526 | -95.35006 | 145 ft | 184 kts | 151° |
| 2025-09-06 23:29 | 29.94897 | -95.33348 | 1764 ft | 249 kts | 150° |
| 2025-09-06 23:29 | 29.93341 | -95.32319 | 2398 ft | 264 kts | 149° |
| 2025-09-06 23:30 | 29.90089 | -95.30118 | 3579 ft | 279 kts | 147° |
| 2025-09-06 23:30 | 29.87758 | -95.26649 | 4946 ft | 282 kts | 102° |
| 2025-09-06 23:31 | 29.90598 | -95.21458 | 6752 ft | 285 kts | 11° |
| 2025-09-06 23:32 | 29.94492 | -95.22106 | 7899 ft | 289 kts | 342° |
| 2025-09-06 23:32 | 29.98407 | -95.23380 | 9036 ft | 295 kts | 345° |
| 2025-09-06 23:32 | 30.00405 | -95.23955 | 9637 ft | 297 kts | 346° |
| 2025-09-06 23:33 | 30.04499 | -95.25055 | 10508 ft | 313 kts | 347° |
| 2025-09-06 23:33 | 30.08995 | -95.25361 | 10898 ft | 341 kts | 15° |
| 2025-09-06 23:34 | 30.13177 | -95.22569 | 11592 ft | 354 kts | 35° |
| 2025-09-06 23:34 | 30.17243 | -95.19238 | 12420 ft | 362 kts | 36° |
| 2025-09-06 23:35 | 30.23536 | -95.14158 | 13645 ft | 372 kts | 35° |
| 2025-09-06 23:36 | 30.27828 | -95.10711 | 14430 ft | 379 kts | 34° |
| 2025-09-06 23:36 | 30.32199 | -95.07207 | 15224 ft | 385 kts | 34° |
| 2025-09-06 23:37 | 30.36593 | -95.03670 | 16013 ft | 390 kts | 33° |
| 2025-09-06 23:37 | 30.38826 | -95.01878 | 16374 ft | 394 kts | 34° |
| 2025-09-06 23:37 | 30.43401 | -94.98316 | 17152 ft | 397 kts | 32° |
| 2025-09-06 23:38 | 30.48038 | -94.94781 | 17953 ft | 400 kts | 31° |
| 2025-09-06 23:38 | 30.52699 | -94.91219 | 18716 ft | 403 kts | 31° |
| 2025-09-06 23:39 | 30.59785 | -94.85779 | 19697 ft | 411 kts | 31° |
| 2025-09-06 23:40 | 30.64572 | -94.82094 | 20359 ft | 415 kts | 31° |
| 2025-09-06 23:40 | 30.69412 | -94.78369 | 20982 ft | 420 kts | 31° |
| 2025-09-06 23:40 | 30.71852 | -94.76490 | 21296 ft | 422 kts | 31° |
| 2025-09-06 23:41 | 30.76762 | -94.72705 | 21888 ft | 426 kts | 31° |
| 2025-09-06 23:41 | 30.81729 | -94.68871 | 22471 ft | 430 kts | 31° |
| 2025-09-06 23:42 | 30.86741 | -94.64992 | 22944 ft | 437 kts | 30° |
| 2025-09-06 23:42 | 30.91830 | -94.61055 | 23501 ft | 440 kts | 30° |
| 2025-09-06 23:43 | 30.99536 | -94.55086 | 24299 ft | 446 kts | 30° |
| 2025-09-06 23:44 | 31.04721 | -94.51069 | 24827 ft | 449 kts | 30° |
| 2025-09-06 23:45 | 31.15199 | -94.42933 | 25897 ft | 454 kts | 30° |
| 2025-09-06 23:46 | 31.33684 | -94.28509 | 27995 ft | 459 kts | 30° |
| 2025-09-06 23:48 | 31.55188 | -94.11611 | 30094 ft | 473 kts | 29° |
| 2025-09-06 23:50 | 31.77460 | -93.94074 | 32085 ft | 490 kts | 29° |
| 2025-09-06 23:53 | 32.02070 | -93.71713 | 34332 ft | 503 kts | 34° |
| 2025-09-06 23:54 | 32.21527 | -93.53763 | 36074 ft | 511 kts | 33° |
| 2025-09-06 23:56 | 32.43101 | -93.33797 | 37948 ft | 515 kts | 33° |
| 2025-09-06 23:58 | 32.65484 | -93.12946 | 39959 ft | 507 kts | 30° |
| 2025-09-07 00:00 | 32.87524 | -92.92316 | 41157 ft | 512 kts | 30° |
| 2025-09-07 00:03 | 33.13440 | -92.69136 | 41157 ft | 519 kts | 28° |
| 2025-09-07 00:05 | 33.36738 | -92.48716 | 41157 ft | 519 kts | 29° |
| 2025-09-07 00:06 | 33.55837 | -92.28677 | 41157 ft | 535 kts | 45° |
| 2025-09-07 00:09 | 33.76646 | -91.96594 | 41156 ft | 544 kts | 46° |
| 2025-09-07 00:10 | 33.92888 | -91.71442 | 41157 ft | 544 kts | 47° |
| 2025-09-07 00:13 | 34.13717 | -91.38780 | 41156 ft | 555 kts | 47° |
| 2025-09-07 00:14 | 34.30145 | -91.12859 | 41157 ft | 555 kts | 47° |
| 2025-09-07 00:16 | 34.48881 | -90.83133 | 41157 ft | 555 kts | 47° |
| 2025-09-07 00:18 | 34.67464 | -90.53381 | 41157 ft | 552 kts | 47° |